Latest Weather Observations for Edinburgh

IDS60801

Issued at 3:01 am CST Wednesday 8 July 2015 (issued every 30 minutes, with the page automatically refreshed every 10 minutes)

About weather observations | Map of weather stations | Latest weather observations for SA | Other Formats
Station Details ID: 023083 Name: EDINBURGH RAAF Lat: -34.71 Lon: 138.62 Height: 16.54 m
Data from the previous 72 hours. | See also: Recent months at Edinburgh
Date/Time
CST
Temp
°C
App
Temp
°C
Dew
Point
Rel
Hum
%
Delta-T
°C
Wind Press
QNH
hPa
Press
MSL
hPa
Rain
since 9 am
mm
Dir
 
Spd
km/h
Gust
km/h
Spd
kts
Gust
kts
08/03:00am 9.1 7.0 8.3 95 0.4 N 9 13 5 7 1023.4 1023.4 0.2
08/02:30am 9.3 7.6 8.5 95 0.4 NE 7 9 4 5 1023.4 1023.4 0.2
08/02:00am 9.2 7.1 8.4 95 0.4 NNE 9 13 5 7 1023.6 1023.6 0.2
08/01:54am 8.8 6.6 7.9 94 0.4 NNE 9 13 5 7 1023.6 1023.6 0.2
08/01:46am 8.4 6.5 7.5 94 0.4 NNE 7 9 4 5 1023.5 1023.5 0.2
08/01:43am 8.5 6.6 7.6 94 0.4 NNE 7 9 4 5 1023.5 1023.5 0.2
08/01:38am 8.7 6.9 7.8 94 0.4 NNE 7 9 4 5 1023.5 1023.5 0.2
08/01:30am 8.9 6.7 8.0 94 0.4 NNE 9 9 5 5 1023.5 1023.5 0.2
08/01:10am 10.2 8.4 9.3 94 0.4 NE 9 13 5 7 1023.6 1023.6 0.2
08/01:00am 10.2 8.4 9.3 94 0.4 NE 9 13 5 7 1023.6 1023.6 0.2
08/12:30am 10.4 8.3 9.6 95 0.4 ENE 11 15 6 8 1023.7 1023.7 0.2
08/12:09am 10.1 7.9 9.2 94 0.4 ENE 11 13 6 7 1023.9 1023.9 0.2
08/12:02am 10.0 8.1 9.1 94 0.4 ENE 9 13 5 7 1024.0 1024.0 0.2
08/12:00am 10.0 8.1 9.1 94 0.4 ENE 9 11 5 6 1024.0 1024.0 0.2
 
Date/Time
CST
Temp
°C
App
Temp
°C
Dew
Point
Rel
Hum
%
Delta-T
°C
Wind Press
QNH
hPa
Press
MSL
hPa
Rain
since 9 am
mm
Dir
 
Spd
km/h
Gust
km/h
Spd
kts
Gust
kts
07/11:47pm 9.6 7.6 8.7 94 0.4 NE 9 13 5 7 1024.1 1024.1 0.2
07/11:41pm 9.6 7.6 8.7 94 0.4 NE 9 11 5 6 1024.1 1024.1 0.2
07/11:30pm 9.5 7.5 8.6 94 0.4 NE 9 11 5 6 1024.1 1024.1 0.2
07/11:27pm 9.6 7.6 8.7 94 0.4 NNE 9 11 5 6 1024.1 1024.1 0.2
07/11:00pm 9.6 8.0 8.7 94 0.4 NNE 7 9 4 5 1024.1 1024.1 0.2
07/10:30pm 9.9 8.0 9.0 94 0.4 NE 9 9 5 5 1024.1 1024.1 0.2
07/10:04pm 10.5 9.3 9.6 94 0.5 NE 6 11 3 6 1024.1 1024.1 0.2
07/10:00pm 10.5 10.1 9.6 94 0.5 NW 2 11 1 6 1024.1 1024.1 0.2
07/09:50pm 10.0 8.6 8.9 93 0.5 WNW 6 7 3 4 1024.0 1024.0 0.2
07/09:41pm 10.1 8.6 9.0 93 0.5 WNW 7 7 4 4 1023.9 1023.9 0.2
07/09:37pm 10.4 9.5 9.3 93 0.5 W 4 7 2 4 1023.9 1023.9 0.2
07/09:30pm 10.4 9.9 9.3 93 0.5 WNW 2 6 1 3 1023.9 1023.9 0.2
07/09:22pm 10.4 9.1 9.3 93 0.5 WNW 6 6 3 3 1023.9 1023.9 0.2
07/09:12pm 10.6 9.4 9.5 93 0.6 NW 6 7 3 4 1023.9 1023.9 0.2
07/09:00pm 10.9 9.6 9.8 93 0.6 NW 7 9 4 5 1023.8 1023.8 0.2
07/08:56pm 10.9 9.2 10.0 94 0.5 NNW 9 9 5 5 1023.8 1023.8 0.2
07/08:42pm 10.4 8.6 9.5 94 0.5 NNW 9 11 5 6 1023.8 1023.8 0.0
07/08:35pm 9.9 7.9 8.8 93 0.5 N 9 13 5 7 1023.8 1023.8 0.0
07/08:30pm 9.3 7.5 8.1 92 0.6 N 7 13 4 7 1023.7 1023.7 0.0
07/08:23pm 8.9 8.4 7.7 92 0.6 CALM 0 7 0 4 1023.6 1023.6 0.0
07/08:00pm 9.6 9.2 8.4 92 0.6 CALM 0 0 0 0 1023.6 1023.6 0.0
07/07:49pm 9.5 9.1 8.1 91 0.7 CALM 0 0 0 0 1023.4 1023.4 0.0
07/07:30pm 10.3 10.1 9.1 92 0.6 CALM 0 0 0 0 1023.3 1023.3 0.0
07/07:00pm 10.4 10.2 9.0 91 0.7 CALM 0 4 0 2 1023.2 1023.2 0.0
07/06:30pm 10.5 9.0 9.1 91 0.7 SW 7 7 4 4 1022.8 1022.8 0.0
07/06:00pm 10.2 8.2 8.5 89 0.8 WSW 9 11 5 6 1022.7 1022.7 0.0
07/05:30pm 10.8 9.2 8.6 86 1.1 W 7 9 4 5 1022.5 1022.5 0.0
07/05:00pm 12.2 10.3 9.2 82 1.5 W 9 11 5 6 1022.2 1022.2 0.0
07/04:30pm 13.6 11.6 10.2 80 1.8 W 11 13 6 7 1022.1 1022.1 0.0
07/04:00pm 14.2 11.8 10.0 76 2.2 WSW 13 19 7 10 1021.9 1021.9 0.0
07/03:30pm 14.4 11.7 10.2 76 2.2 W 15 19 8 10 1021.8 1021.8 0.0
07/03:00pm 14.6 12.1 9.8 73 2.5 W 13 19 7 10 1021.8 1021.8 0.0
07/02:30pm 14.5 11.3 10.1 75 2.3 W 17 20 9 11 1021.7 1021.7 0.0
07/02:00pm 14.5 11.1 10.5 77 2.1 W 19 22 10 12 1021.6 1021.6 0.0
07/01:30pm 14.3 10.7 9.9 75 2.3 W 19 22 10 12 1021.7 1021.7 0.0
07/01:00pm 14.5 10.9 10.5 77 2.1 W 20 28 11 15 1021.9 1021.9 0.0
07/12:30pm 14.9 11.2 11.5 80 1.8 W 22 28 12 15 1022.2 1022.2 0.0
07/12:00pm 14.5 10.8 11.6 83 1.5 W 22 26 12 14 1022.5 1022.5 0.0
07/11:30am 13.9 10.4 10.9 82 1.6 W 20 26 11 14 1022.7 1022.7 0.0
07/11:09am 13.8 10.0 11.3 85 1.3 W 22 28 12 15 1022.8 1022.8 0.0
07/11:00am 13.7 9.9 11.0 84 1.4 W 22 28 12 15 1022.7 1022.7 0.0
07/10:57am 13.6 10.2 11.1 85 1.3 W 20 28 11 15 1022.7 1022.7 0.0
07/10:43am 13.1 9.8 11.0 87 1.1 W 19 28 10 15 1022.8 1022.8 0.0
07/10:30am 13.5 11.3 12.1 91 0.8 W 15 20 8 11 1022.9 1022.9 0.0
07/10:18am 12.9 10.5 11.5 91 0.7 W 15 20 8 11 1022.9 1022.9 0.0
07/10:00am 12.4 10.7 11.3 93 0.6 NW 11 13 6 7 1022.8 1022.8 0.0
07/09:55am 12.0 10.2 10.9 93 0.6 NW 11 15 6 8 1022.8 1022.8 0.0
07/09:48am 11.8 9.6 10.7 93 0.6 NW 13 17 7 9 1022.7 1022.7 0.0
07/09:30am 11.4 8.7 10.5 94 0.5 NW 15 17 8 9 1022.7 1022.7 0.0
07/09:23am 11.1 8.4 10.2 94 0.5 NNW 15 17 8 9 1022.6 1022.6 0.0
07/09:00am 10.7 8.2 9.8 94 0.5 NNW 13 15 7 8 1022.5 1022.5 4.8
07/08:30am 10.4 7.8 9.5 94 0.4 NNW 13 17 7 9 1022.3 1022.3 4.8
07/08:00am 10.0 7.7 9.1 94 0.4 NNW 11 13 6 7 1022.0 1022.0 4.8
07/07:30am 9.9 7.6 9.0 94 0.4 NNW 11 13 6 7 1021.7 1021.7 4.8
07/07:00am 10.4 8.2 9.5 94 0.5 NNW 11 11 6 6 1021.4 1021.4 4.8
07/06:30am 10.6 8.1 9.7 94 0.5 NNW 13 15 7 8 1021.1 1021.1 4.8
07/06:00am 10.5 8.4 9.6 94 0.4 NNW 11 11 6 6 1020.7 1020.7 4.8
07/05:50am 10.5 8.7 9.6 94 0.5 NNW 9 11 5 6 1020.7 1020.7 4.8
07/05:30am 10.4 9.0 9.5 94 0.4 N 7 9 4 5 1020.6 1020.6 4.8
07/05:00am 10.1 8.2 9.2 94 0.4 N 9 11 5 6 1020.3 1020.3 4.8
07/04:30am 10.5 9.1 9.4 93 0.5 N 7 9 4 5 1020.2 1020.2 4.8
07/04:00am 10.5 9.1 9.4 93 0.5 WNW 7 9 4 5 1020.2 1020.2 4.8
07/03:30am 10.4 8.6 9.3 93 0.5 WNW 9 11 5 6 1020.3 1020.3 4.8
07/03:00am 11.2 9.2 10.1 93 0.6 W 11 15 6 8 1020.3 1020.3 4.8
07/02:30am 11.3 8.9 10.2 93 0.6 WSW 13 17 7 9 1020.2 1020.2 4.8
07/02:12am 11.2 8.0 10.1 93 0.6 WSW 17 20 9 11 1020.0 1020.0 4.8
07/02:00am 11.4 8.7 10.3 93 0.6 WSW 15 19 8 10 1020.0 1020.0 4.8
07/01:50am 11.4 8.3 10.3 93 0.6 WSW 17 20 9 11 1020.0 1020.0 4.8
07/01:31am 11.4 7.7 10.3 93 0.6 W 20 28 11 15 1020.0 1020.0 4.8
07/01:30am 11.4 7.7 10.3 93 0.6 W 20 28 11 15 1020.0 1020.0 4.8
07/01:21am 11.3 7.6 10.2 93 0.6 W 20 26 11 14 1019.9 1019.9 4.6
07/01:01am 11.4 7.7 10.3 93 0.6 WSW 20 24 11 13 1019.9 1019.9 4.6
07/01:00am 11.4 7.7 10.3 93 0.6 W 20 26 11 14 1019.9 1019.9 4.6
07/12:38am 11.4 7.9 10.3 93 0.6 W 19 24 10 13 1020.1 1020.1 4.4
07/12:30am 11.3 7.8 10.2 93 0.6 W 19 24 10 13 1020.1 1020.1 4.4
07/12:13am 11.4 7.9 10.3 93 0.6 W 19 24 10 13 1020.0 1020.0 4.4
07/12:09am 11.3 7.8 10.2 93 0.6 W 19 24 10 13 1020.0 1020.0 4.4
07/12:00am 11.1 7.5 10.0 93 0.6 W 19 24 10 13 1020.1 1020.1 4.2
 
Date/Time
CST
Temp
°C
App
Temp
°C
Dew
Point
Rel
Hum
%
Delta-T
°C
Wind Press
QNH
hPa
Press
MSL
hPa
Rain
since 9 am
mm
Dir
 
Spd
km/h
Gust
km/h
Spd
kts
Gust
kts
06/11:51pm 11.1 8.4 10.2 94 0.5 WNW 15 24 8 13 1020.1 1020.1 4.2
06/11:30pm 10.9 8.8 9.8 93 0.6 NW 11 13 6 7 1020.1 1020.1 4.2
06/11:00pm 10.6 8.4 9.4 92 0.6 NNW 11 13 6 7 1020.2 1020.2 4.2
06/10:30pm 11.1 8.7 9.9 92 0.6 W 13 15 7 8 1020.1 1020.1 4.0
06/10:00pm 10.6 8.8 9.5 93 0.6 NNW 9 15 5 8 1020.1 1020.1 4.0
06/09:30pm 10.9 9.2 9.8 93 0.6 NW 9 13 5 7 1019.9 1019.9 4.0
06/09:00pm 10.9 9.8 9.8 93 0.6 W 6 11 3 6 1019.5 1019.5 4.0
06/08:30pm 9.9 7.5 8.8 93 0.5 WNW 11 15 6 8 1019.1 1019.1 4.0
06/08:00pm 8.8 6.5 7.6 92 0.6 WNW 9 11 5 6 1019.0 1019.0 4.0
06/07:30pm 9.0 6.8 7.8 92 0.6 NW 9 11 5 6 1018.9 1018.9 4.0
06/07:00pm 9.8 7.7 8.4 91 0.7 W 9 9 5 5 1018.7 1018.7 4.0
06/06:30pm 9.6 7.9 8.2 91 0.7 WSW 7 11 4 6 1018.5 1018.5 4.0
06/06:00pm 10.4 8.4 8.8 90 0.8 W 9 9 5 5 1018.2 1018.2 4.0
06/05:30pm 11.4 9.4 10.0 91 0.7 WSW 11 15 6 8 1017.9 1017.9 4.0
06/05:00pm 12.1 9.4 10.3 89 0.9 WSW 15 20 8 11 1017.7 1017.7 4.0
06/04:30pm 12.2 8.4 9.9 86 1.2 W 20 24 11 13 1017.3 1017.3 3.8
06/04:00pm 12.3 8.0 10.7 90 0.8 W 24 30 13 16 1017.2 1017.2 3.8
06/03:30pm 12.1 8.5 10.5 90 0.8 WSW 20 30 11 16 1017.1 1017.1 3.6
06/03:22pm 12.2 8.8 10.4 89 0.9 WSW 19 26 10 14 1017.0 1017.0 3.4
06/03:00pm 12.4 9.0 10.6 89 0.9 SW 19 26 10 14 1016.8 1016.8 2.2
06/02:51pm 12.7 8.7 10.4 86 1.2 SW 22 30 12 16 1016.8 1016.8 0.8
06/02:30pm 14.9 9.5 9.5 70 2.8 W 28 39 15 21 1016.5 1016.5 0.0
06/02:00pm 14.9 8.5 8.4 65 3.3 W 32 37 17 20 1016.7 1016.7 0.0
06/01:30pm 15.3 9.3 8.8 65 3.3 W 30 37 16 20 1016.8 1016.8 0.0
06/01:00pm 14.3 7.8 8.0 66 3.1 W 32 41 17 22 1016.9 1016.9 0.0
06/12:30pm 14.3 7.4 8.7 69 2.8 W 35 43 19 23 1017.0 1017.0 0.0
06/12:00pm 15.0 8.6 9.4 69 2.9 W 33 43 18 23 1017.3 1017.3 0.0
06/11:30am 15.2 9.6 8.9 66 3.2 W 28 37 15 20 1017.5 1017.5 0.0
06/11:00am 14.5 8.4 9.7 73 2.5 W 32 39 17 21 1017.5 1017.5 0.0
06/10:30am 14.2 10.6 10.0 76 2.2 NW 19 26 10 14 1017.6 1017.6 0.0
06/10:00am 13.5 10.2 9.7 78 1.9 NNW 17 22 9 12 1017.5 1017.5 0.0
06/09:30am 12.0 8.1 8.7 80 1.6 NNW 19 24 10 13 1017.4 1017.4 0.0
06/09:00am 10.8 7.0 7.7 81 1.5 NNW 17 22 9 12 1017.0 1017.0 0.2
06/08:30am 9.7 5.8 7.0 83 1.3 NNW 17 22 9 12 1016.7 1016.7 0.2
06/08:00am 9.4 5.4 6.7 83 1.3 NNW 17 20 9 11 1016.4 1016.4 0.2
06/07:30am 9.2 5.6 6.6 84 1.2 NNW 15 17 8 9 1016.1 1016.1 0.2
06/07:00am 9.4 5.0 6.7 83 1.3 NNW 19 24 10 13 1016.0 1016.0 0.2
06/06:30am 9.7 6.1 6.6 81 1.4 NNW 15 19 8 10 1016.0 1016.0 0.2
06/06:00am 10.1 7.9 6.1 76 1.8 NNE 7 13 4 7 1015.9 1015.9 0.2
06/05:30am 10.5 5.7 5.5 71 2.3 NNW 20 26 11 14 1015.5 1015.5 0.0
06/05:00am 10.2 6.7 5.4 72 2.2 N 13 20 7 11 1015.5 1015.5 0.0
06/04:30am 10.6 7.9 5.4 70 2.4 N 9 13 5 7 1015.6 1015.6 0.0
06/04:00am 11.3 8.5 5.2 66 2.8 NNW 9 15 5 8 1016.0 1016.0 0.0
06/03:30am 11.4 8.5 4.8 64 3.0 NW 9 15 5 8 1016.0 1016.0 0.0
06/03:00am 11.6 6.8 4.8 63 3.1 NW 19 26 10 14 1016.1 1016.1 0.0
06/02:30am 11.6 6.4 5.3 65 2.9 NNW 22 32 12 17 1015.6 1015.6 0.0
06/02:00am 11.9 6.3 5.3 64 3.0 NNW 24 33 13 18 1015.7 1015.7 0.0
06/01:30am 12.6 7.5 4.3 57 3.8 N 20 26 11 14 1015.6 1015.6 0.0
06/01:00am 12.8 8.0 4.5 57 3.8 N 19 26 10 14 1016.1 1016.1 0.0
06/12:30am 12.2 7.8 4.9 61 3.3 NNE 17 22 9 12 1016.1 1016.1 0.0
06/12:00am 11.8 7.9 5.2 64 3.0 NE 15 19 8 10 1016.7 1016.7 0.0
 
Date/Time
CST
Temp
°C
App
Temp
°C
Dew
Point
Rel
Hum
%
Delta-T
°C
Wind Press
QNH
hPa
Press
MSL
hPa
Rain
since 9 am
mm
Dir
 
Spd
km/h
Gust
km/h
Spd
kts
Gust
kts
05/11:30pm 11.7 7.8 5.3 65 2.9 NNE 15 19 8 10 1016.8 1016.8 0.0
05/11:00pm 11.8 7.5 5.4 65 3.0 NNE 17 20 9 11 1016.9 1016.9 0.0
05/10:30pm 11.5 7.3 5.6 67 2.7 NE 17 20 9 11 1017.2 1017.2 0.0
05/10:00pm 11.5 7.4 6.0 69 2.6 NE 17 19 9 10 1017.2 1017.2 0.0
05/09:30pm 11.5 7.0 6.0 69 2.6 NNE 19 22 10 12 1017.4 1017.4 0.0
05/09:00pm 12.3 7.9 5.0 61 3.4 N 17 19 9 10 1017.6 1017.6 0.0
05/08:30pm 12.3 8.3 5.0 61 3.4 NE 15 19 8 10 1017.5 1017.5 0.0
05/08:00pm 12.3 8.3 5.0 61 3.4 NNE 15 19 8 10 1017.6 1017.6 0.0
05/07:30pm 12.2 8.2 5.1 62 3.3 NE 15 17 8 9 1017.6 1017.6 0.0
05/07:00pm 12.1 8.9 5.3 63 3.1 NE 11 15 6 8 1017.6 1017.6 0.0
05/06:30pm 11.9 8.7 5.1 63 3.1 NNE 11 13 6 7 1017.4 1017.4 0.0
05/06:00pm 12.3 8.7 4.8 60 3.4 NNE 13 17 7 9 1017.3 1017.3 0.0
05/05:30pm 12.9 9.4 5.3 60 3.5 N 13 15 7 8 1017.2 1017.2 0.0
05/05:00pm 13.1 9.4 4.3 55 4.0 NNW 13 19 7 10 1017.3 1017.3 0.0
05/04:30pm 16.0 12.0 4.7 47 5.3 NNW 15 22 8 12 1017.4 1017.4 0.0
05/04:00pm 16.9 12.0 3.9 42 6.1 NW 19 24 10 13 1017.4 1017.4 0.0
05/03:30pm 17.3 11.5 4.3 42 6.1 NNW 24 33 13 18 1017.5 1017.5 0.0
05/03:00pm 17.3 11.5 4.3 42 6.1 NW 24 30 13 16 1017.7 1017.7 0.0
05/02:30pm 17.5 12.2 5.1 44 5.9 NW 22 30 12 16 1017.9 1017.9 0.0
05/02:00pm 17.4 12.0 4.4 42 6.1 NW 22 28 12 15 1018.1 1018.1 0.0
05/01:30pm 17.2 12.6 5.5 46 5.6 NW 19 24 10 13 1018.3 1018.3 0.0
05/01:00pm 16.8 11.6 5.4 47 5.5 NNW 22 30 12 16 1018.9 1018.9 0.0
05/12:30pm 16.5 11.9 5.8 49 5.2 NNW 19 26 10 14 1019.4 1019.4 0.0
05/12:00pm 15.8 10.9 5.1 49 5.1 NNW 20 26 11 14 1019.9 1019.9 0.0
05/11:30am 15.5 11.0 6.0 53 4.6 NNW 19 24 10 13 1020.3 1020.3 0.0
05/11:00am 14.5 10.5 6.8 60 3.7 N 17 22 9 12 1020.8 1020.8 0.0
05/10:30am 13.0 9.0 6.6 65 3.1 N 17 20 9 11 1021.1 1021.1 0.0
05/10:00am 12.4 8.7 6.2 66 2.9 NNE 15 20 8 11 1021.2 1021.2 0.0
05/09:30am 11.3 7.1 5.8 69 2.5 NNE 17 19 9 10 1021.3 1021.3 0.0
05/09:00am 10.5 6.3 5.7 72 2.2 NNE 17 20 9 11 1021.3 1021.3 0.2
05/08:30am 9.8 5.5 5.4 74 2.0 NNE 17 24 9 13 1021.1 1021.1 0.2
05/08:00am 7.8 4.1 4.7 81 1.4 NE 13 15 7 8 1021.0 1021.0 0.2
05/07:30am 6.8 2.7 4.1 83 1.2 NE 15 17 8 9 1020.8 1020.8 0.2
05/07:00am 7.6 3.9 4.6 81 1.3 ENE 13 17 7 9 1020.7 1020.7 0.2
05/06:30am 6.9 3.5 3.9 81 1.3 NE 11 13 6 7 1020.7 1020.7 0.2
05/06:00am 7.3 4.0 4.4 82 1.3 ENE 11 13 6 7 1020.5 1020.5 0.2
05/05:30am 6.5 2.6 3.5 81 1.3 NE 13 15 7 8 1020.5 1020.5 0.2
05/05:00am 7.0 3.2 4.0 81 1.3 ENE 13 15 7 8 1020.5 1020.5 0.2
05/04:30am 7.0 2.9 4.1 82 1.2 NE 15 17 8 9 1020.5 1020.5 0.2
05/04:00am 7.2 3.5 4.7 84 1.1 ENE 13 17 7 9 1020.5 1020.5 0.2
05/03:30am 6.2 2.7 3.7 84 1.1 NE 11 15 6 8 1020.7 1020.7 0.2

Other Formats:

Comma delimited format used in spreadsheet applications
http://www.bom.gov.au/fwo/IDS60801/IDS60801.95676.axf

JavaScript Object Notation format (JSON) in row-major order
http://www.bom.gov.au/fwo/IDS60801/IDS60801.95676.json